Time;durP1;ratioP1;P1;durP2;ratioP2;P2;SDS_P1;SDS_P2;PMS_P1;PMS_P2;Temp;Humidity;BMP_temperature;BMP_pressure;BME280_temperature;BME280_humidity;BME280_pressure;Samples;Min_cycle;Max_cycle;Signal;HPM_P1;HPM_P2
2022/04/30 00:00:41;;;;;;;9.00;8.70;;;22.60;51.00;;;;;;5033963;28;20452;-50
2022/04/30 00:03:09;;;;;;;9.93;9.63;;;22.60;51.00;;;;;;5033763;28;20803;-50
2022/04/30 00:05:36;;;;;;;10.17;9.73;;;22.60;50.90;;;;;;5033752;28;20468;-49
2022/04/30 00:08:05;;;;;;;8.80;8.60;;;22.60;50.90;;;;;;5033549;28;20524;-48
2022/04/30 00:10:37;;;;;;;8.40;8.20;;;22.60;50.90;;;;;;5036290;28;20502;-48
2022/04/30 00:13:05;;;;;;;9.60;9.30;;;22.60;50.90;;;;;;5053721;28;20445;-50
2022/04/30 00:15:34;;;;;;;9.20;8.93;;;22.60;50.90;;;;;;5053323;28;20838;-48
2022/04/30 00:18:02;;;;;;;9.47;9.27;;;22.60;50.90;;;;;;5053121;28;20930;-48
2022/04/30 00:20:29;;;;;;;9.17;8.97;;;22.60;50.90;;;;;;5053425;28;20452;-50
2022/04/30 00:22:56;;;;;;;8.40;8.20;;;22.60;50.90;;;;;;5044885;28;20477;-50
2022/04/30 00:25:24;;;;;;;9.57;9.27;;;22.60;50.90;;;;;;5045866;28;20468;-50
2022/04/30 00:27:52;;;;;;;9.50;9.30;;;22.50;50.80;;;;;;5050639;28;21624;-48
2022/04/30 00:30:19;;;;;;;9.17;8.90;;;22.50;50.70;;;;;;5033543;28;20517;-50
2022/04/30 00:32:46;;;;;;;9.53;9.33;;;22.50;50.80;;;;;;5033747;28;20438;-48
2022/04/30 00:35:14;;;;;;;9.10;8.90;;;22.50;50.80;;;;;;5044674;28;21061;-50
2022/04/30 00:37:41;;;;;;;9.70;9.40;;;22.50;50.90;;;;;;5052571;28;20506;-48
2022/04/30 00:40:09;;;;;;;8.40;8.20;;;22.40;50.90;;;;;;5053632;28;20467;-51
2022/04/30 00:42:37;;;;;;;9.40;9.20;;;22.40;50.90;;;;;;5053588;28;20491;-48
2022/04/30 00:45:05;;;;;;;9.33;9.03;;;22.40;50.90;;;;;;5053202;28;20836;-50
2022/04/30 00:47:32;;;;;;;9.27;9.07;;;22.40;51.00;;;;;;5038400;28;20803;-50
2022/04/30 00:49:59;;;;;;;10.00;9.70;;;22.30;50.90;;;;;;5033315;28;20507;-49
2022/04/30 00:52:26;;;;;;;8.87;8.57;;;22.30;51.00;;;;;;5033360;28;20446;-49
2022/04/30 00:55:02;;;;;;;8.80;8.60;;;22.30;51.00;;;;;;5033365;28;20453;-50
2022/04/30 00:57:32;;;;;;;9.10;8.80;;;22.30;51.00;;;;;;5033293;28;20540;-49
2022/04/30 01:00:02;;;;;;;8.83;8.63;;;22.30;51.10;;;;;;5052071;28;20453;-51
2022/04/30 01:02:30;;;;;;;8.90;8.70;;;22.20;51.10;;;;;;5053231;28;20503;-49
2022/04/30 01:04:58;;;;;;;8.67;8.47;;;22.20;51.10;;;;;;5053000;28;20510;-50
2022/04/30 01:07:25;;;;;;;9.10;8.80;;;22.20;51.10;;;;;;5040870;28;20540;-51
2022/04/30 01:09:54;;;;;;;9.10;8.80;;;22.20;51.10;;;;;;5032648;28;20449;-49
2022/04/30 01:12:22;;;;;;;8.97;8.77;;;22.20;51.20;;;;;;5032638;28;20480;-51
2022/04/30 01:14:52;;;;;;;9.30;9.07;;;22.10;51.20;;;;;;5032608;28;20453;-48
2022/04/30 01:17:21;;;;;;;8.90;8.70;;;22.20;51.20;;;;;;5042190;28;20480;-48
2022/04/30 01:19:49;;;;;;;9.50;9.20;;;22.10;51.20;;;;;;5052413;28;20444;-48
2022/04/30 01:22:23;;;;;;;8.93;8.73;;;22.10;51.20;;;;;;5052019;28;20480;-48
2022/04/30 01:24:55;;;;;;;9.07;8.80;;;22.10;51.20;;;;;;5052620;28;20444;-50
2022/04/30 01:27:23;;;;;;;9.17;8.97;;;22.10;51.30;;;;;;5052682;28;20535;-49
2022/04/30 01:29:50;;;;;;;8.90;8.70;;;22.10;51.30;;;;;;5035391;28;20835;-49
2022/04/30 01:37:46;;;;;;;9.20;8.90;;;22.00;51.40;;;;;;5046471;28;20440;-50
2022/04/30 01:40:14;;;;;;;9.30;9.10;;;22.00;51.40;;;;;;5052273;28;20449;-50
2022/04/30 01:42:44;;;;;;;9.40;9.10;;;21.90;51.40;;;;;;5050445;28;20472;-48
2022/04/30 01:45:12;;;;;;;9.93;9.63;;;21.90;51.50;;;;;;5052281;28;20472;-48
2022/04/30 01:47:40;;;;;;;9.03;8.83;;;21.90;51.50;;;;;;5039721;28;20449;-49
2022/04/30 01:50:09;;;;;;;9.13;8.83;;;21.90;51.50;;;;;;5032005;28;21010;-49
2022/04/30 01:52:36;;;;;;;10.03;9.73;;;21.90;51.50;;;;;;5032592;28;20810;-50
2022/04/30 01:55:03;;;;;;;8.90;8.70;;;21.90;51.50;;;;;;5032604;28;20465;-50
2022/04/30 01:57:32;;;;;;;9.00;8.70;;;22.00;51.50;;;;;;5032013;28;20456;-50
2022/04/30 02:00:00;;;;;;;8.70;8.50;;;22.00;51.30;;;;;;5046486;28;20808;-49
2022/04/30 02:02:34;;;;;;;8.83;8.63;;;22.00;51.30;;;;;;5052383;28;20487;-50
2022/04/30 02:05:03;;;;;;;9.53;9.23;;;22.00;51.10;;;;;;5052440;28;20476;-49
2022/04/30 02:07:32;;;;;;;9.30;9.10;;;22.10;51.10;;;;;;5044163;28;20455;-50
2022/04/30 02:10:00;;;;;;;9.20;9.00;;;22.10;50.90;;;;;;5032082;28;20954;-50
2022/04/30 02:12:31;;;;;;;10.57;9.97;;;22.20;50.80;;;;;;5031936;28;20495;-50
2022/04/30 02:15:00;;;;;;;8.60;8.40;;;22.20;50.80;;;;;;5032147;28;20457;-49
2022/04/30 02:17:29;;;;;;;9.30;9.00;;;22.20;50.60;;;;;;5038295;28;20455;-50
2022/04/30 02:22:42;;;;;;;9.53;9.23;;;22.30;50.50;;;;;;5051839;28;20478;-49
2022/04/30 02:25:12;;;;;;;9.53;9.23;;;22.30;50.40;;;;;;5051714;28;20475;-48
2022/04/30 02:27:40;;;;;;;9.27;9.00;;;22.30;50.40;;;;;;5043339;28;20445;-50
2022/04/30 02:30:11;;;;;;;9.07;8.80;;;22.30;50.40;;;;;;5031939;28;20445;-48
2022/04/30 02:32:42;;;;;;;9.80;9.50;;;22.30;50.40;;;;;;5032134;28;20473;-50
2022/04/30 02:35:10;;;;;;;9.30;9.10;;;22.30;50.40;;;;;;5031794;28;20469;-50
2022/04/30 02:37:37;;;;;;;9.70;9.40;;;22.30;50.40;;;;;;5036632;28;20457;-48
2022/04/30 02:40:05;;;;;;;9.33;9.13;;;22.20;50.30;;;;;;5031637;28;20820;-49
2022/04/30 02:42:32;;;;;;;9.43;9.20;;;22.20;50.30;;;;;;5032005;28;20493;-50
2022/04/30 02:44:59;;;;;;;9.27;9.07;;;22.20;50.40;;;;;;5031637;28;20465;-48
2022/04/30 02:47:28;;;;;;;9.60;9.30;;;22.20;50.30;;;;;;5031620;28;20491;-49
2022/04/30 02:49:55;;;;;;;9.90;9.70;;;22.20;50.40;;;;;;5039295;28;20809;-50
2022/04/30 02:52:22;;;;;;;9.60;9.30;;;22.20;50.40;;;;;;5051548;28;20440;-52
2022/04/30 02:54:49;;;;;;;9.43;9.23;;;22.20;50.40;;;;;;5051416;28;20448;-49
2022/04/30 02:57:16;;;;;;;9.60;9.30;;;22.10;50.30;;;;;;5051221;28;20450;-50
2022/04/30 02:59:53;;;;;;;9.47;9.17;;;22.10;50.30;;;;;;5051474;28;20820;-50
2022/04/30 03:02:21;;;;;;;9.37;9.17;;;22.10;50.40;;;;;;5052289;28;20782;-48
2022/04/30 03:04:51;;;;;;;9.30;9.10;;;22.10;50.40;;;;;;5054889;28;20521;-49
2022/04/30 03:07:18;;;;;;;9.20;8.93;;;22.00;50.40;;;;;;5054739;28;20864;-48
2022/04/30 03:09:47;;;;;;;8.90;8.70;;;22.00;50.40;;;;;;5036319;28;20538;-50
2022/04/30 03:12:14;;;;;;;8.97;8.77;;;22.00;50.40;;;;;;5035116;28;20477;-48
2022/04/30 03:14:42;;;;;;;9.07;8.83;;;22.00;50.40;;;;;;5047968;28;20886;-47
2022/04/30 03:22:40;;;;;;;9.33;9.13;;;22.00;50.40;;;;;;5054817;28;20471;-48
2022/04/30 03:25:08;;;;;;;9.87;9.57;;;21.90;50.40;;;;;;5036601;28;20882;-49
2022/04/30 03:27:35;;;;;;;9.50;9.30;;;21.90;50.40;;;;;;5034530;28;20507;-50
2022/04/30 03:30:02;;;;;;;10.90;10.33;;;21.90;50.50;;;;;;5035038;28;20449;-48
2022/04/30 03:32:30;;;;;;;9.20;9.00;;;21.90;50.50;;;;;;5034673;28;20453;-48
2022/04/30 03:34:59;;;;;;;9.63;9.43;;;21.90;50.50;;;;;;5035171;28;20453;-48
2022/04/30 03:37:26;;;;;;;9.70;9.30;;;21.80;50.40;;;;;;5034521;28;20445;-48
2022/04/30 03:39:53;;;;;;;9.80;9.50;;;21.80;50.40;;;;;;5034374;28;20468;-48
2022/04/30 03:42:20;;;;;;;9.60;9.33;;;21.80;50.60;;;;;;5034130;28;20568;-50
2022/04/30 03:44:48;;;;;;;10.10;9.80;;;21.80;50.80;;;;;;5034125;28;20540;-48
2022/04/30 03:47:15;;;;;;;9.63;9.40;;;21.80;50.90;;;;;;5034282;28;20492;-48
2022/04/30 03:49:42;;;;;;;9.10;8.90;;;21.80;50.90;;;;;;5034270;28;20450;-48
2022/04/30 03:52:11;;;;;;;9.23;9.03;;;21.70;50.90;;;;;;5033991;28;20903;-49
2022/04/30 03:54:39;;;;;;;9.07;8.77;;;21.70;51.00;;;;;;5045275;28;20480;-50
2022/04/30 03:57:06;;;;;;;9.50;9.13;;;21.70;51.00;;;;;;5053383;28;20519;-48
2022/04/30 03:59:33;;;;;;;9.70;9.40;;;21.70;51.00;;;;;;5053668;28;20452;-49
2022/04/30 04:02:00;;;;;;;10.90;10.60;;;21.70;51.00;;;;;;5053835;28;20444;-49
2022/04/30 04:04:29;;;;;;;10.30;10.00;;;21.70;51.00;;;;;;5043475;28;20810;-47
2022/04/30 04:06:56;;;;;;;9.00;8.80;;;21.70;50.90;;;;;;5033724;28;20470;-49
2022/04/30 04:09:24;;;;;;;9.00;8.80;;;21.80;50.90;;;;;;5033559;28;20507;-49
2022/04/30 04:11:51;;;;;;;9.30;9.10;;;21.80;50.80;;;;;;5033120;28;20499;-48
2022/04/30 04:19:47;;;;;;;9.97;9.23;;;22.00;50.60;;;;;;5053116;28;20462;-49
2022/04/30 04:22:14;;;;;;;9.60;9.30;;;22.10;50.50;;;;;;5053058;28;20444;-47
2022/04/30 04:27:29;;;;;;;8.73;8.53;;;22.30;50.00;;;;;;5050070;28;20447;-47
2022/04/30 04:29:56;;;;;;;9.90;9.60;;;22.40;49.80;;;;;;5032924;28;20461;-47
2022/04/30 04:32:24;;;;;;;9.33;8.93;;;22.50;49.70;;;;;;5032871;28;20945;-49
2022/04/30 04:34:51;;;;;;;9.20;9.00;;;22.50;49.50;;;;;;5032682;28;20473;-47
2022/04/30 04:37:20;;;;;;;9.70;9.40;;;22.50;49.50;;;;;;5032408;28;20869;-48
2022/04/30 04:39:50;;;;;;;9.20;9.00;;;22.60;49.60;;;;;;5035647;28;20457;-49
2022/04/30 04:42:19;;;;;;;9.60;9.30;;;22.60;49.80;;;;;;5052718;28;20444;-50
2022/04/30 04:44:46;;;;;;;9.30;9.10;;;22.60;49.70;;;;;;5052349;28;20527;-48
2022/04/30 04:47:14;;;;;;;10.03;9.67;;;22.60;49.70;;;;;;5052497;28;20479;-45
2022/04/30 04:49:41;;;;;;;9.30;9.10;;;22.60;50.20;;;;;;5052380;28;20851;-47
2022/04/30 04:52:10;;;;;;;8.80;8.40;;;22.60;49.60;;;;;;5048257;28;20827;-47
2022/04/30 04:54:38;;;;;;;9.70;9.40;;;22.60;49.60;;;;;;5032509;28;20818;-51
2022/04/30 04:57:07;;;;;;;9.80;9.60;;;22.60;49.60;;;;;;5032130;28;20473;-47
2022/04/30 04:59:34;;;;;;;9.40;9.20;;;22.70;49.60;;;;;;5032365;28;20875;-49
2022/04/30 05:02:03;;;;;;;10.60;10.27;;;22.60;49.50;;;;;;5033406;28;20484;-50
2022/04/30 05:04:31;;;;;;;9.10;8.80;;;22.60;49.60;;;;;;5032176;28;20485;-47
2022/04/30 05:07:00;;;;;;;9.50;9.30;;;22.50;49.50;;;;;;5032136;28;20975;-49
2022/04/30 05:09:27;;;;;;;9.47;9.17;;;22.50;49.60;;;;;;5032220;28;20515;-50
2022/04/30 05:11:55;;;;;;;10.00;9.60;;;22.50;49.60;;;;;;5033120;28;20450;-51
2022/04/30 05:14:24;;;;;;;9.83;9.60;;;22.50;49.60;;;;;;5039802;28;20507;-56
2022/04/30 05:16:51;;;;;;;10.07;9.80;;;22.50;49.60;;;;;;5031839;28;20472;-49
2022/04/30 05:19:19;;;;;;;9.87;9.60;;;22.50;49.50;;;;;;5032427;28;20543;-57
2022/04/30 05:21:47;;;;;;;9.40;9.20;;;22.50;49.60;;;;;;5031985;28;20532;-54
2022/04/30 05:24:14;;;;;;;10.20;9.80;;;22.50;49.60;;;;;;5035077;28;20484;-50
2022/04/30 05:26:42;;;;;;;9.77;9.47;;;22.50;49.60;;;;;;5031879;28;20465;-52
2022/04/30 05:29:09;;;;;;;9.40;9.20;;;22.50;49.50;;;;;;5031924;28;20503;-47
2022/04/30 05:31:38;;;;;;;9.43;9.13;;;22.50;49.50;;;;;;5031962;28;20452;-50
2022/04/30 05:34:05;;;;;;;9.73;9.43;;;22.50;49.60;;;;;;5031949;28;20449;-47
2022/04/30 05:36:33;;;;;;;10.13;9.93;;;22.50;49.70;;;;;;5046576;28;20530;-48
2022/04/30 05:39:00;;;;;;;9.43;9.13;;;22.50;49.70;;;;;;5051879;28;20452;-51
2022/04/30 05:41:28;;;;;;;10.20;10.00;;;22.50;49.70;;;;;;5051770;28;20440;-47
2022/04/30 05:43:56;;;;;;;10.63;10.23;;;22.50;49.70;;;;;;5051737;28;20484;-48
2022/04/30 05:46:23;;;;;;;9.70;9.50;;;22.50;49.90;;;;;;5051490;28;20472;-48
2022/04/30 05:48:52;;;;;;;9.93;9.63;;;22.50;49.80;;;;;;5034909;28;20459;-48
2022/04/30 05:51:20;;;;;;;9.63;9.33;;;22.40;49.90;;;;;;5031747;28;20520;-47
2022/04/30 05:53:48;;;;;;;9.93;9.63;;;22.40;49.90;;;;;;5031257;28;20471;-49
2022/04/30 05:56:15;;;;;;;9.33;9.13;;;22.40;49.90;;;;;;5031407;28;21027;-50
2022/04/30 05:58:43;;;;;;;10.03;9.83;;;22.40;49.90;;;;;;5031072;28;20491;-47
2022/04/30 06:01:10;;;;;;;11.10;10.80;;;22.40;49.90;;;;;;5032619;28;20456;-47
2022/04/30 06:03:39;;;;;;;10.00;9.80;;;22.40;50.00;;;;;;5031417;28;20481;-50
2022/04/30 06:06:08;;;;;;;10.00;9.70;;;22.40;50.00;;;;;;5031356;28;20470;-48
2022/04/30 06:08:35;;;;;;;10.40;10.10;;;22.40;50.00;;;;;;5042602;28;20966;-45
2022/04/30 06:11:03;;;;;;;10.00;9.70;;;22.40;50.00;;;;;;5051364;28;20872;-50
2022/04/30 06:13:30;;;;;;;9.60;9.40;;;22.30;50.00;;;;;;5051238;28;20837;-47
2022/04/30 06:15:58;;;;;;;10.53;10.00;;;22.30;50.20;;;;;;5051124;28;20530;-51
2022/04/30 06:18:25;;;;;;;10.47;10.17;;;22.30;50.10;;;;;;5040753;28;20456;-56
2022/04/30 06:20:52;;;;;;;9.83;9.60;;;22.30;50.00;;;;;;5031515;28;20449;-53
2022/04/30 06:23:21;;;;;;;10.43;10.13;;;22.30;50.00;;;;;;5031215;28;20848;-48
2022/04/30 06:25:49;;;;;;;10.20;9.77;;;22.30;50.00;;;;;;5031418;28;20461;-50
2022/04/30 06:28:16;;;;;;;10.40;10.10;;;22.30;50.40;;;;;;5031329;28;20540;-53
2022/04/30 06:30:44;;;;;;;9.53;9.33;;;22.30;49.90;;;;;;5043034;28;20448;-48
2022/04/30 06:33:11;;;;;;;10.73;10.43;;;22.30;50.00;;;;;;5051075;28;20491;-49
2022/04/30 06:35:39;;;;;;;10.30;10.00;;;22.30;49.90;;;;;;5052318;28;20961;-50
2022/04/30 06:38:07;;;;;;;10.90;10.60;;;22.30;50.10;;;;;;5054472;28;20456;-49
2022/04/30 06:40:36;;;;;;;10.37;10.00;;;22.30;50.00;;;;;;5054789;28;20448;-49
2022/04/30 06:43:03;;;;;;;10.67;10.40;;;22.30;49.90;;;;;;5052958;28;20974;-47
2022/04/30 06:45:32;;;;;;;10.50;10.20;;;22.30;50.00;;;;;;5055037;28;20486;-47
2022/04/30 06:47:59;;;;;;;11.60;11.10;;;22.30;50.10;;;;;;5054579;28;20869;-48
2022/04/30 06:50:26;;;;;;;11.37;10.87;;;22.40;51.10;;;;;;5054586;28;20448;-49
2022/04/30 06:58:23;;;;;;;13.93;12.93;;;22.50;54.60;;;;;;5054655;28;20427;-47
2022/04/30 07:03:35;;;;;;;15.10;13.80;;;22.60;56.60;;;;;;5054043;28;20517;-52
2022/04/30 07:06:06;;;;;;;17.83;14.50;;;22.60;59.20;;;;;;5014601;28;20502;-50
2022/04/30 07:08:35;;;;;;;12.67;11.53;;;22.70;60.90;;;;;;5014389;28;20812;-51
2022/04/30 07:11:05;;;;;;;13.90;12.57;;;22.70;59.80;;;;;;5014905;28;20501;-50
2022/04/30 07:13:35;;;;;;;15.07;13.57;;;22.80;60.90;;;;;;5041444;28;20973;-52
2022/04/30 07:16:03;;;;;;;13.87;12.57;;;22.70;61.20;;;;;;5054033;28;21031;-48
2022/04/30 07:18:31;;;;;;;13.93;12.90;;;22.80;62.10;;;;;;5054031;28;20808;-53
2022/04/30 07:20:58;;;;;;;13.07;11.93;;;22.70;63.10;;;;;;5052095;28;20445;-49
2022/04/30 07:23:25;;;;;;;15.57;14.23;;;22.70;62.60;;;;;;5054006;28;20926;-52
2022/04/30 07:25:52;;;;;;;13.53;12.43;;;22.70;63.20;;;;;;5053898;28;20496;-48
2022/04/30 07:28:22;;;;;;;13.73;12.50;;;22.70;63.30;;;;;;5053857;28;20444;-49
2022/04/30 07:30:49;;;;;;;14.33;13.00;;;22.70;63.50;;;;;;5049433;28;20453;-48
2022/04/30 07:33:16;;;;;;;12.30;11.57;;;22.60;63.50;;;;;;5033914;28;20444;-48
2022/04/30 07:35:44;;;;;;;12.70;11.90;;;22.60;63.30;;;;;;5033799;28;20469;-49
2022/04/30 07:38:10;;;;;;;16.93;13.17;;;22.60;62.90;;;;;;5033616;28;20457;-48
2022/04/30 07:40:38;;;;;;;13.60;12.40;;;22.60;62.60;;;;;;5033868;28;20449;-48
2022/04/30 07:43:05;;;;;;;12.77;11.97;;;22.50;62.40;;;;;;5038545;28;20444;-50
2022/04/30 07:45:34;;;;;;;13.30;12.33;;;22.50;61.90;;;;;;5053435;28;20478;-48
2022/04/30 07:48:00;;;;;;;12.97;11.77;;;22.50;61.30;;;;;;5052791;28;20479;-49
2022/04/30 07:50:31;;;;;;;13.53;12.73;;;22.50;61.10;;;;;;5053554;28;20451;-48
2022/04/30 07:52:57;;;;;;;12.57;11.67;;;22.50;61.00;;;;;;5053179;28;20456;-48
2022/04/30 07:55:28;;;;;;;12.73;11.53;;;22.50;60.70;;;;;;5034974;28;20464;-50
2022/04/30 07:57:54;;;;;;;12.97;12.10;;;22.50;60.00;;;;;;5053481;28;20690;-51
2022/04/30 08:00:21;;;;;;;14.13;13.03;;;22.50;59.80;;;;;;5053365;28;20455;-50
2022/04/30 08:02:49;;;;;;;13.03;12.27;;;22.60;59.70;;;;;;5053260;28;20449;-52
2022/04/30 08:05:16;;;;;;;12.73;12.03;;;22.60;59.40;;;;;;5052943;28;20491;-50
2022/04/30 08:07:43;;;;;;;12.57;11.67;;;22.60;59.00;;;;;;5052901;28;20878;-49
2022/04/30 08:10:10;;;;;;;12.23;11.60;;;22.60;58.70;;;;;;5053124;28;20444;-51
2022/04/30 08:12:37;;;;;;;12.10;11.30;;;22.60;58.40;;;;;;5053061;28;20451;-51
2022/04/30 08:15:04;;;;;;;11.90;11.20;;;22.60;58.10;;;;;;5053098;28;20464;-50
2022/04/30 08:17:31;;;;;;;12.70;11.83;;;22.60;57.80;;;;;;5052749;28;20801;-50
2022/04/30 08:19:59;;;;;;;13.40;11.97;;;22.60;57.70;;;;;;5052893;28;20448;-50
2022/04/30 08:22:26;;;;;;;11.60;10.97;;;22.60;57.50;;;;;;5052910;28;20444;-51
2022/04/30 08:24:52;;;;;;;10.63;10.23;;;22.60;57.40;;;;;;5052718;28;20484;-50
2022/04/30 08:27:19;;;;;;;11.53;10.93;;;22.60;57.10;;;;;;5052572;28;20459;-50
2022/04/30 08:29:46;;;;;;;10.90;10.50;;;22.60;57.00;;;;;;5052839;28;20453;-52
2022/04/30 08:32:15;;;;;;;11.33;10.53;;;22.60;56.90;;;;;;5043361;28;20457;-50
2022/04/30 08:34:41;;;;;;;11.53;10.77;;;22.50;56.70;;;;;;5052676;28;20456;-49
2022/04/30 08:37:10;;;;;;;11.37;10.67;;;22.50;56.60;;;;;;5052818;28;20445;-55
2022/04/30 08:39:36;;;;;;;11.50;10.60;;;22.50;56.50;;;;;;5052690;28;20444;-49
2022/04/30 08:42:06;;;;;;;11.53;10.80;;;22.40;56.30;;;;;;5044386;28;20445;-48
2022/04/30 08:44:35;;;;;;;12.43;11.53;;;22.40;56.50;;;;;;5032433;28;20901;-50
2022/04/30 08:47:02;;;;;;;10.70;10.30;;;22.40;56.70;;;;;;5032324;28;20859;-52
2022/04/30 08:49:29;;;;;;;11.73;11.00;;;22.30;56.80;;;;;;5032270;28;20452;-48
2022/04/30 08:51:55;;;;;;;12.03;11.30;;;22.30;57.00;;;;;;5038774;28;20437;-50
2022/04/30 08:54:24;;;;;;;10.53;9.50;;;22.20;57.00;;;;;;5052313;28;20436;-50
2022/04/30 08:56:54;;;;;;;10.20;9.80;;;22.20;57.10;;;;;;5051916;28;20522;-48
2022/04/30 08:59:21;;;;;;;11.00;10.50;;;22.20;57.10;;;;;;5051199;28;20440;-50
2022/04/30 09:01:50;;;;;;;11.73;11.13;;;22.20;57.00;;;;;;5049783;28;20865;-48
2022/04/30 09:04:17;;;;;;;10.90;10.37;;;22.20;57.10;;;;;;5012708;28;20482;-50
2022/04/30 09:06:45;;;;;;;10.47;9.90;;;22.10;56.90;;;;;;5031899;28;20808;-51
2022/04/30 09:09:13;;;;;;;11.67;10.97;;;22.10;56.90;;;;;;5031992;28;20449;-58
2022/04/30 09:11:41;;;;;;;10.73;10.13;;;22.10;56.90;;;;;;5033034;28;20535;-52
2022/04/30 09:14:08;;;;;;;11.30;10.80;;;22.20;56.90;;;;;;5032122;28;20445;-54
2022/04/30 09:16:35;;;;;;;11.37;10.77;;;22.20;56.80;;;;;;5031712;28;20552;-47
2022/04/30 09:19:04;;;;;;;10.27;9.87;;;22.20;56.70;;;;;;5031903;28;20445;-45
2022/04/30 09:21:30;;;;;;;10.30;9.80;;;22.30;56.40;;;;;;5033242;28;20448;-48
2022/04/30 09:24:06;;;;;;;9.97;9.47;;;22.30;56.20;;;;;;5051582;28;20483;-47
2022/04/30 09:26:44;;;;;;;11.57;11.07;;;22.40;56.00;;;;;;5052090;28;20529;-45
2022/04/30 09:29:20;;;;;;;10.90;10.30;;;22.40;55.80;;;;;;5048487;28;20449;-48
2022/04/30 09:31:50;;;;;;;9.93;9.57;;;22.50;55.50;;;;;;5032309;28;20441;-45
2022/04/30 09:39:47;;;;;;;9.80;9.40;;;22.70;54.90;;;;;;5039647;28;20927;-46
2022/04/30 09:42:15;;;;;;;10.83;10.43;;;22.70;54.70;;;;;;5051746;28;20539;-50
2022/04/30 09:44:42;;;;;;;11.73;11.23;;;22.80;54.80;;;;;;5051910;28;20503;-49
2022/04/30 09:47:09;;;;;;;11.97;11.37;;;22.80;54.60;;;;;;5049752;28;20448;-50
2022/04/30 09:55:08;;;;;;;11.83;11.43;;;22.70;51.70;;;;;;5044905;28;20547;-46
2022/04/30 09:57:38;;;;;;;12.20;11.70;;;22.70;52.10;;;;;;5042794;28;20448;-48
2022/04/30 10:00:08;;;;;;;14.27;13.40;;;22.70;52.30;;;;;;5051518;28;20444;-46
2022/04/30 10:02:35;;;;;;;12.17;11.27;;;22.70;52.70;;;;;;5051347;28;20459;-46
2022/04/30 10:05:04;;;;;;;11.50;10.90;;;22.70;53.20;;;;;;5035944;28;20496;-47
2022/04/30 10:07:33;;;;;;;14.03;12.70;;;22.70;53.40;;;;;;5031394;28;20454;-48
2022/04/30 10:10:08;;;;;;;12.07;11.63;;;22.60;53.30;;;;;;5031919;28;20457;-46
2022/04/30 10:12:43;;;;;;;13.33;12.73;;;22.70;53.50;;;;;;5035517;28;20452;-46
2022/04/30 10:15:17;;;;;;;13.40;12.60;;;22.60;53.40;;;;;;5051265;28;20997;-46
2022/04/30 10:17:47;;;;;;;12.87;12.20;;;22.60;53.40;;;;;;5055461;28;20788;-46
2022/04/30 10:20:16;;;;;;;13.30;12.60;;;22.60;53.50;;;;;;5055237;28;20449;-46
2022/04/30 10:22:53;;;;;;;13.20;12.57;;;22.60;53.60;;;;;;5055209;28;20813;-46
2022/04/30 10:25:32;;;;;;;13.17;12.67;;;22.40;51.10;;;;;;5037440;28;20859;-46
2022/04/30 10:28:03;;;;;;;13.40;12.83;;;22.20;49.30;;;;;;5040473;28;20504;-47
2022/04/30 10:30:30;;;;;;;13.50;12.90;;;22.10;49.50;;;;;;5045208;28;20455;-45
2022/04/30 10:33:01;;;;;;;13.00;12.50;;;22.10;49.40;;;;;;5035138;28;20819;-45
2022/04/30 10:35:32;;;;;;;12.77;12.37;;;22.10;49.10;;;;;;5035615;28;20468;-44
2022/04/30 10:38:13;;;;;;;13.63;12.60;;;22.10;50.10;;;;;;5039241;28;20446;-47
2022/04/30 10:40:47;;;;;;;13.10;12.40;;;22.10;51.40;;;;;;5034861;28;20460;-48
2022/04/30 10:43:28;;;;;;;13.13;12.53;;;22.10;51.10;;;;;;5034853;28;20505;-48
2022/04/30 10:45:56;;;;;;;13.20;12.70;;;22.00;49.90;;;;;;5044277;28;20985;-46
2022/04/30 10:48:23;;;;;;;12.97;12.37;;;22.10;50.60;;;;;;5054531;28;20922;-47
2022/04/30 10:51:01;;;;;;;13.07;12.43;;;22.10;50.40;;;;;;5054975;28;20440;-46
2022/04/30 10:53:29;;;;;;;12.83;12.33;;;22.10;51.00;;;;;;5053297;28;20451;-49
2022/04/30 10:55:56;;;;;;;12.63;12.23;;;22.10;51.10;;;;;;5053335;28;20457;-47
2022/04/30 10:58:25;;;;;;;12.97;12.47;;;22.10;51.10;;;;;;5034679;28;20456;-48
2022/04/30 11:00:53;;;;;;;12.73;12.23;;;22.10;51.60;;;;;;5034660;28;20530;-50
2022/04/30 11:03:26;;;;;;;12.90;12.40;;;22.00;51.20;;;;;;5035668;28;20445;-47
2022/04/30 11:05:53;;;;;;;12.90;12.33;;;21.90;49.70;;;;;;5034957;28;20481;-46
2022/04/30 11:08:21;;;;;;;12.57;11.97;;;21.80;49.40;;;;;;5034655;28;20453;-47
2022/04/30 11:10:52;;;;;;;13.17;12.50;;;21.80;48.90;;;;;;5034758;28;20445;-49
2022/04/30 11:13:19;;;;;;;12.80;12.40;;;21.80;48.80;;;;;;5035766;28;20888;-50
2022/04/30 11:15:47;;;;;;;13.00;12.20;;;21.80;48.70;;;;;;5034543;28;20461;-47
2022/04/30 11:18:18;;;;;;;12.90;12.50;;;21.80;48.50;;;;;;5034236;28;20457;-48
2022/04/30 11:20:45;;;;;;;12.13;11.73;;;21.80;48.20;;;;;;5036376;28;20453;-46
2022/04/30 11:23:21;;;;;;;12.40;11.80;;;21.70;48.20;;;;;;5032639;28;20449;-47
2022/04/30 11:25:48;;;;;;;14.37;13.67;;;21.80;48.40;;;;;;5033880;28;20485;-47
2022/04/30 11:28:15;;;;;;;13.83;12.93;;;21.70;48.50;;;;;;5033953;28;20873;-47
2022/04/30 11:30:43;;;;;;;12.97;12.37;;;21.70;48.00;;;;;;5033864;28;20806;-47
2022/04/30 11:33:12;;;;;;;12.53;12.07;;;21.60;47.20;;;;;;5034210;28;20454;-48
2022/04/30 11:35:40;;;;;;;11.97;11.67;;;21.60;47.40;;;;;;5034114;28;20484;-47
2022/04/30 11:38:10;;;;;;;11.40;11.00;;;21.70;47.30;;;;;;5033842;28;20452;-48
2022/04/30 11:40:42;;;;;;;12.60;12.00;;;21.70;47.00;;;;;;5034068;28;20456;-46
2022/04/30 11:43:08;;;;;;;13.17;12.63;;;21.60;46.70;;;;;;5033902;28;20445;-48
2022/04/30 11:45:35;;;;;;;13.33;12.83;;;21.50;46.20;;;;;;5033614;28;21010;-46
2022/04/30 11:48:03;;;;;;;13.23;12.73;;;21.40;45.70;;;;;;5033510;28;20469;-46
2022/04/30 11:50:32;;;;;;;12.70;12.30;;;21.30;45.20;;;;;;5033714;28;20499;-45
2022/04/30 11:52:59;;;;;;;13.60;13.10;;;21.30;44.70;;;;;;5034032;28;20441;-48
2022/04/30 11:55:26;;;;;;;12.50;12.10;;;21.20;44.60;;;;;;5034442;28;20464;-46
2022/04/30 11:57:53;;;;;;;13.10;12.70;;;21.20;44.20;;;;;;5045539;28;20440;-49
2022/04/30 12:00:20;;;;;;;12.37;11.97;;;21.20;44.10;;;;;;5053392;28;20448;-47
2022/04/30 12:02:48;;;;;;;12.53;12.13;;;21.30;44.40;;;;;;5051605;28;20980;-47
2022/04/30 12:05:16;;;;;;;12.50;12.10;;;21.30;44.50;;;;;;5052990;28;20496;-49
2022/04/30 12:07:46;;;;;;;12.03;11.63;;;21.30;44.40;;;;;;5052903;28;20444;-48
2022/04/30 12:10:18;;;;;;;11.73;11.43;;;21.30;44.70;;;;;;5053440;28;20544;-48
2022/04/30 12:12:45;;;;;;;13.23;12.73;;;21.30;44.40;;;;;;5035536;28;20453;-47
2022/04/30 12:15:20;;;;;;;12.20;11.70;;;21.20;43.90;;;;;;5045356;28;20982;-48
2022/04/30 12:24:40;;;;;;;9.98;9.60;;;21.20;44.10;;;;;;5052261;28;20499;-46
2022/04/30 12:26:13;;;;;;;12.13;11.60;;;21.40;43.70;;;;;;5052846;28;20840;-47
2022/04/30 12:28:45;;;;;;;11.60;11.30;;;21.30;44.00;;;;;;5052601;28;20445;-47
2022/04/30 12:31:12;;;;;;;11.53;11.13;;;21.40;46.00;;;;;;5048480;28;20556;-48
2022/04/30 12:33:44;;;;;;;13.13;12.53;;;21.40;46.00;;;;;;5032585;28;20449;-46
2022/04/30 12:36:13;;;;;;;11.80;11.40;;;21.40;46.00;;;;;;5032761;28;20465;-47
2022/04/30 12:38:52;;;;;;;11.43;10.93;;;21.30;45.10;;;;;;5032070;28;20528;-47
2022/04/30 12:41:19;;;;;;;12.40;11.90;;;21.20;44.60;;;;;;5034055;28;20205;-47
2022/04/30 12:43:46;;;;;;;12.93;12.47;;;21.10;43.60;;;;;;5032562;28;20940;-47
2022/04/30 12:46:20;;;;;;;12.93;12.43;;;20.90;42.20;;;;;;5052816;28;20499;-48
2022/04/30 12:48:47;;;;;;;14.00;13.40;;;20.90;41.60;;;;;;5052338;28;20452;-50
2022/04/30 12:51:14;;;;;;;13.40;12.60;;;20.80;41.00;;;;;;5049247;28;20449;-49
2022/04/30 12:53:42;;;;;;;12.73;12.33;;;20.80;40.90;;;;;;5032362;28;20815;-50
2022/04/30 12:56:09;;;;;;;13.40;12.90;;;20.90;41.30;;;;;;5032255;28;20820;-49
2022/04/30 12:58:36;;;;;;;13.67;12.90;;;21.00;42.40;;;;;;5033056;28;20467;-49
2022/04/30 13:01:03;;;;;;;12.57;12.07;;;21.00;42.30;;;;;;5042982;28;20454;-48
2022/04/30 13:03:31;;;;;;;13.53;13.03;;;20.80;40.90;;;;;;5034321;28;20822;-49
2022/04/30 13:05:58;;;;;;;13.00;12.50;;;20.70;40.60;;;;;;5032462;28;20485;-49
2022/04/30 13:13:30;;;;;;;12.57;12.07;;;20.70;40.20;;;;;;5032135;28;20935;-49
2022/04/30 13:13:57;;;;;;;12.87;12.37;;;20.80;41.10;;;;;;5039010;28;20953;-49
2022/04/30 13:16:24;;;;;;;13.23;12.73;;;20.90;41.50;;;;;;5037036;28;20461;-49
2022/04/30 13:18:51;;;;;;;12.50;12.00;;;20.90;41.50;;;;;;5032034;28;20535;-49
2022/04/30 13:21:18;;;;;;;13.00;12.50;;;20.70;41.00;;;;;;5032002;28;20446;-49
2022/04/30 13:23:45;;;;;;;12.27;11.87;;;20.80;41.00;;;;;;5032000;28;20449;-47
2022/04/30 13:26:13;;;;;;;11.70;11.30;;;20.80;41.20;;;;;;5031783;28;21014;-47
2022/04/30 13:28:40;;;;;;;11.87;11.47;;;20.70;40.50;;;;;;5031799;28;20480;-51
2022/04/30 13:31:07;;;;;;;11.00;10.70;;;20.70;40.90;;;;;;5032157;28;20520;-49